Portada
METAR-TAF:

METAR-TAF

Aeropuertos :

Payerne, Suiza

latitud: 46-49N, longitud: 006-57E, altitud: 490 m

Observación

El informe se hizo hace 31 minutos, a las 07:50 UTC
Viento 1 kt con dirección variable
Temperatura 2°C
Humedad 87%
Presión 1024 hPa
Visibilidad: 7000 m
Nubes dispersas a una altura de 2500 ft

METAR: LSMP 070750Z AUTO VRB01KT 7000NDV SCT025 02/00 Q1024 RMK

Hora: 09:21 (08:21 UTC)


TAF: falta

Observaciones y pronósticos meteorológicos de más de 4000 aeropuertos (mensajes METAR y TAF).

Los puntos amarillos y rojos representan las estaciones disponibles.

Ponga el ratón en el punto deseado para ver el nombre de la estación.

Haga clic para ver las observaciones y los pronósticos meteorológicos.

Para cambiar el mapa : haga clic en los botones verdes con una cruz de color negro para hacer un zoom, en el botón verde con un guión para alejar o en las flechas verdes para mapas adyacentes.


METAR-TAF: